Time;durP1;ratioP1;P1;durP2;ratioP2;P2;SDS_P1;SDS_P2;PMS_P1;PMS_P2;Temp;Humidity;BMP_temperature;BMP_pressure;BME280_temperature;BME280_humidity;BME280_pressure;Samples;Min_cycle;Max_cycle;Signal;HPM_P1;HPM_P2
2023/09/27 00:00:14;;;;;;;12.05;2.47;;;;;;;;;;4949141;28;20273;-37
2023/09/27 00:02:43;;;;;;;13.40;2.47;;;;;;;;;;4953469;28;20640;-37
2023/09/27 00:05:12;;;;;;;14.15;2.47;;;;;;;;;;4948920;28;20520;-37
2023/09/27 00:07:41;;;;;;;10.48;1.98;;;;;;;;;;4956616;28;20038;-37
2023/09/27 00:10:11;;;;;;;11.50;2.37;;;;;;;;;;4949565;28;20050;-37
2023/09/27 00:12:39;;;;;;;12.70;2.55;;;;;;;;;;4964400;28;20402;-37
2023/09/27 00:15:09;;;;;;;9.95;2.08;;;;;;;;;;4946957;28;20054;-37
2023/09/27 00:17:37;;;;;;;11.50;2.60;;;;;;;;;;4964136;28;20043;-37
2023/09/27 00:20:06;;;;;;;12.18;3.05;;;;;;;;;;4949217;28;20727;-37
2023/09/27 00:22:34;;;;;;;13.77;2.93;;;;;;;;;;4960133;28;20042;-37
2023/09/27 00:25:04;;;;;;;13.27;3.30;;;;;;;;;;4955613;28;20042;-37
2023/09/27 00:27:32;;;;;;;11.57;2.30;;;;;;;;;;4964590;28;20046;-37
2023/09/27 00:30:00;;;;;;;13.25;3.20;;;;;;;;;;4949030;28;20058;-37
2023/09/27 00:32:28;;;;;;;14.05;3.28;;;;;;;;;;4969519;28;20049;-37
2023/09/27 00:34:56;;;;;;;14.17;2.70;;;;;;;;;;4957032;28;20056;-37
2023/09/27 00:37:23;;;;;;;15.82;2.60;;;;;;;;;;4964498;28;20049;-37
2023/09/27 00:39:55;;;;;;;12.45;3.10;;;;;;;;;;4964833;28;20370;-37
2023/09/27 00:42:25;;;;;;;17.77;3.38;;;;;;;;;;4952983;28;20125;-37
2023/09/27 00:44:53;;;;;;;19.17;3.63;;;;;;;;;;4960855;28;20053;-37
2023/09/27 00:47:20;;;;;;;16.50;3.10;;;;;;;;;;4955402;28;20061;-37
2023/09/27 00:49:51;;;;;;;15.57;2.63;;;;;;;;;;4966493;28;20105;-37
2023/09/27 00:52:19;;;;;;;12.20;2.92;;;;;;;;;;4953558;28;20108;-37
2023/09/27 00:54:47;;;;;;;15.73;3.67;;;;;;;;;;4967063;28;20038;-37
2023/09/27 00:57:15;;;;;;;13.65;3.22;;;;;;;;;;4961808;28;20141;-37
2023/09/27 00:59:44;;;;;;;13.50;2.90;;;;;;;;;;4964988;28;20501;-37
2023/09/27 01:02:13;;;;;;;14.02;3.05;;;;;;;;;;4968379;28;20134;-37
2023/09/27 01:04:41;;;;;;;11.60;2.83;;;;;;;;;;4961131;28;20037;-37
2023/09/27 01:07:13;;;;;;;15.10;2.85;;;;;;;;;;4962298;28;20397;-37
2023/09/27 01:09:41;;;;;;;14.80;3.17;;;;;;;;;;4961378;28;20057;-37
2023/09/27 01:12:09;;;;;;;13.73;3.03;;;;;;;;;;4958192;28;20046;-37
2023/09/27 01:14:37;;;;;;;16.35;3.70;;;;;;;;;;4967454;28;20049;-37
2023/09/27 01:17:10;;;;;;;16.20;3.58;;;;;;;;;;4956249;28;20595;-37
2023/09/27 01:19:38;;;;;;;18.88;2.88;;;;;;;;;;4961242;28;20050;-36
2023/09/27 01:22:06;;;;;;;13.90;2.97;;;;;;;;;;4949765;28;20073;-37
2023/09/27 01:24:37;;;;;;;17.53;3.63;;;;;;;;;;4964152;28;20046;-37
2023/09/27 01:27:06;;;;;;;19.05;3.85;;;;;;;;;;4963206;28;20437;-37
2023/09/27 01:29:35;;;;;;;18.95;3.10;;;;;;;;;;4949927;28;20042;-37
2023/09/27 01:32:07;;;;;;;20.48;3.40;;;;;;;;;;4959826;28;20453;-37
2023/09/27 01:34:34;;;;;;;18.80;4.15;;;;;;;;;;4961231;28;20062;-38
2023/09/27 01:37:02;;;;;;;19.77;3.77;;;;;;;;;;4958377;28;20374;-37
2023/09/27 01:39:32;;;;;;;19.77;4.00;;;;;;;;;;4969873;28;20039;-37
2023/09/27 01:42:01;;;;;;;17.30;3.45;;;;;;;;;;4953548;28;20041;-36
2023/09/27 01:44:29;;;;;;;15.85;3.28;;;;;;;;;;4963701;28;20046;-37
2023/09/27 01:46:57;;;;;;;20.00;3.33;;;;;;;;;;4960569;28;20566;-36
2023/09/27 01:49:26;;;;;;;18.73;4.20;;;;;;;;;;4925863;28;20042;-36
2023/09/27 01:51:54;;;;;;;16.40;3.70;;;;;;;;;;4971799;28;20056;-36
2023/09/27 01:54:22;;;;;;;17.45;3.85;;;;;;;;;;4967370;28;20034;-36
2023/09/27 01:56:49;;;;;;;13.20;3.33;;;;;;;;;;4953378;28;20038;-36
2023/09/27 01:59:18;;;;;;;11.77;3.65;;;;;;;;;;4962799;28;20485;-36
2023/09/27 02:01:46;;;;;;;16.87;3.50;;;;;;;;;;4968989;28;20042;-37
2023/09/27 02:04:14;;;;;;;16.98;3.45;;;;;;;;;;4959727;28;20124;-36
2023/09/27 02:06:42;;;;;;;13.20;3.88;;;;;;;;;;4935993;28;20058;-37
2023/09/27 02:09:10;;;;;;;14.77;4.28;;;;;;;;;;4956796;28;20057;-37
2023/09/27 02:11:38;;;;;;;13.93;4.50;;;;;;;;;;4970438;28;20049;-36
2023/09/27 02:14:05;;;;;;;13.40;5.00;;;;;;;;;;4964926;28;20053;-36
2023/09/27 02:16:34;;;;;;;16.00;4.75;;;;;;;;;;4973746;28;20778;-37
2023/09/27 02:19:04;;;;;;;15.25;5.00;;;;;;;;;;4948394;28;20064;-36
2023/09/27 02:21:32;;;;;;;17.17;5.40;;;;;;;;;;4969206;28;20132;-36
2023/09/27 02:24:00;;;;;;;15.88;5.22;;;;;;;;;;4959950;28;20042;-37
2023/09/27 02:26:28;;;;;;;13.97;5.13;;;;;;;;;;4965434;28;20038;-37
2023/09/27 02:28:56;;;;;;;20.08;5.28;;;;;;;;;;4971953;28;20580;-36
2023/09/27 02:31:23;;;;;;;15.98;6.22;;;;;;;;;;4968663;28;20066;-37
2023/09/27 02:33:53;;;;;;;14.68;5.75;;;;;;;;;;4952740;28;20046;-37
2023/09/27 02:36:20;;;;;;;14.57;5.78;;;;;;;;;;4970885;28;20061;-37
2023/09/27 02:38:48;;;;;;;16.73;6.10;;;;;;;;;;4967358;28;20086;-40
2023/09/27 02:41:16;;;;;;;16.40;5.47;;;;;;;;;;4969774;28;20062;-36
2023/09/27 02:43:44;;;;;;;14.48;4.80;;;;;;;;;;4969367;28;20476;-36
2023/09/27 02:46:11;;;;;;;13.90;4.47;;;;;;;;;;4940190;28;20061;-36
2023/09/27 02:48:39;;;;;;;13.55;4.55;;;;;;;;;;4959520;28;21261;-37
2023/09/27 02:51:08;;;;;;;15.97;4.83;;;;;;;;;;4956348;28;20050;-37
2023/09/27 02:53:36;;;;;;;11.98;4.60;;;;;;;;;;4972273;28;20520;-36
2023/09/27 02:56:05;;;;;;;14.10;5.65;;;;;;;;;;4961697;28;20050;-36
2023/09/27 02:58:34;;;;;;;14.32;5.05;;;;;;;;;;4957889;28;20053;-36
2023/09/27 03:01:02;;;;;;;14.30;5.32;;;;;;;;;;4961630;28;20049;-36
2023/09/27 03:03:30;;;;;;;13.10;5.63;;;;;;;;;;4971226;28;20036;-36
2023/09/27 03:05:59;;;;;;;15.02;5.57;;;;;;;;;;4955000;28;20038;-37
2023/09/27 03:08:29;;;;;;;15.23;5.07;;;;;;;;;;4970032;28;20525;-36
2023/09/27 03:10:57;;;;;;;14.35;5.43;;;;;;;;;;4957243;28;20047;-36
2023/09/27 03:13:29;;;;;;;18.40;6.38;;;;;;;;;;4967508;28;20042;-37
2023/09/27 03:16:15;;;;;;;15.60;5.33;;;;;;;;;;4972594;28;20054;-36
2023/09/27 03:18:43;;;;;;;16.63;5.80;;;;;;;;;;4953694;28;20054;-36
2023/09/27 03:21:12;;;;;;;18.08;6.20;;;;;;;;;;4957876;28;20057;-36
2023/09/27 03:23:41;;;;;;;16.35;5.95;;;;;;;;;;4963955;28;20049;-37
2023/09/27 03:26:09;;;;;;;16.58;5.22;;;;;;;;;;4956070;28;20046;-36
2023/09/27 03:28:37;;;;;;;18.97;6.50;;;;;;;;;;4961108;28;20049;-36
2023/09/27 03:31:06;;;;;;;18.63;6.18;;;;;;;;;;4952707;28;20064;-36
2023/09/27 03:33:34;;;;;;;18.75;5.90;;;;;;;;;;4955892;28;22751;-37
2023/09/27 03:36:03;;;;;;;20.55;6.50;;;;;;;;;;4954239;28;20059;-36
2023/09/27 03:38:32;;;;;;;23.00;6.25;;;;;;;;;;4955619;28;20050;-36
2023/09/27 03:41:02;;;;;;;18.47;5.53;;;;;;;;;;4925565;28;20030;-37
2023/09/27 03:43:32;;;;;;;25.35;6.13;;;;;;;;;;4960310;28;20145;-36
2023/09/27 03:46:03;;;;;;;18.13;5.43;;;;;;;;;;4961898;28;20035;-36
2023/09/27 03:48:31;;;;;;;18.83;6.78;;;;;;;;;;4954982;28;20043;-37
2023/09/27 03:50:59;;;;;;;21.50;6.55;;;;;;;;;;4956950;28;20650;-36
2023/09/27 03:53:26;;;;;;;24.43;6.87;;;;;;;;;;4958585;28;20042;-36
2023/09/27 03:55:54;;;;;;;26.45;6.68;;;;;;;;;;4963664;28;20058;-36
2023/09/27 03:58:23;;;;;;;20.23;6.32;;;;;;;;;;4966189;28;20065;-36
2023/09/27 04:00:51;;;;;;;21.75;6.95;;;;;;;;;;4972681;28;20412;-37
2023/09/27 04:03:20;;;;;;;28.13;7.35;;;;;;;;;;4964821;28;20496;-37
2023/09/27 04:05:48;;;;;;;24.60;7.33;;;;;;;;;;4969642;28;20061;-37
2023/09/27 04:08:17;;;;;;;24.67;7.43;;;;;;;;;;4960511;28;20042;-36
2023/09/27 04:10:46;;;;;;;20.15;6.72;;;;;;;;;;4961929;28;20129;-37
2023/09/27 04:13:14;;;;;;;21.52;6.05;;;;;;;;;;4980598;28;20035;-36
2023/09/27 04:15:43;;;;;;;17.20;6.55;;;;;;;;;;4968664;28;20053;-36
2023/09/27 04:18:12;;;;;;;24.63;6.90;;;;;;;;;;4970988;28;20074;-36
2023/09/27 04:20:40;;;;;;;19.70;6.60;;;;;;;;;;4961850;28;20585;-36
2023/09/27 04:23:08;;;;;;;21.73;6.63;;;;;;;;;;4962866;28;20061;-36
2023/09/27 04:25:39;;;;;;;23.67;6.78;;;;;;;;;;4973945;28;20490;-36
2023/09/27 04:28:09;;;;;;;20.48;6.50;;;;;;;;;;4960394;28;20042;-36
2023/09/27 04:30:37;;;;;;;19.37;6.10;;;;;;;;;;4965715;28;20046;-36
2023/09/27 04:33:07;;;;;;;17.55;5.38;;;;;;;;;;4954384;28;20054;-36
2023/09/27 04:35:34;;;;;;;16.35;5.32;;;;;;;;;;4971334;28;20065;-36
2023/09/27 04:38:04;;;;;;;16.58;5.25;;;;;;;;;;4953679;28;20210;-36
2023/09/27 04:40:32;;;;;;;16.33;5.40;;;;;;;;;;4965602;28;20046;-36
2023/09/27 04:43:00;;;;;;;14.67;5.13;;;;;;;;;;4956463;28;20881;-36
2023/09/27 04:45:27;;;;;;;15.00;5.28;;;;;;;;;;4970703;28;20053;-35
2023/09/27 04:47:55;;;;;;;17.40;6.22;;;;;;;;;;4959781;28;20039;-36
2023/09/27 04:50:25;;;;;;;17.92;5.57;;;;;;;;;;4958175;28;20046;-36
2023/09/27 04:52:53;;;;;;;19.35;6.32;;;;;;;;;;4960548;28;20128;-36
2023/09/27 04:55:23;;;;;;;22.17;5.93;;;;;;;;;;4962668;28;20053;-36
2023/09/27 04:57:51;;;;;;;17.40;5.43;;;;;;;;;;4968906;28;20558;-36
2023/09/27 05:00:19;;;;;;;17.75;5.32;;;;;;;;;;4963275;28;20567;-36
2023/09/27 05:02:47;;;;;;;20.65;5.78;;;;;;;;;;4968058;28;20053;-36
2023/09/27 05:05:16;;;;;;;16.92;5.95;;;;;;;;;;4955784;28;20515;-37
2023/09/27 05:07:46;;;;;;;18.23;6.30;;;;;;;;;;4964614;28;20043;-36
2023/09/27 05:10:14;;;;;;;18.90;5.95;;;;;;;;;;4960230;28;20973;-36
2023/09/27 05:12:42;;;;;;;19.42;5.13;;;;;;;;;;4964847;28;20451;-36
2023/09/27 05:15:10;;;;;;;20.35;5.35;;;;;;;;;;4956759;28;20468;-36
2023/09/27 05:17:38;;;;;;;16.70;4.72;;;;;;;;;;4958025;28;20042;-36
2023/09/27 05:20:10;;;;;;;18.40;4.70;;;;;;;;;;4949966;28;20050;-36
2023/09/27 05:22:40;;;;;;;13.07;4.75;;;;;;;;;;4950417;28;20086;-36
2023/09/27 05:25:11;;;;;;;15.02;4.10;;;;;;;;;;4955506;28;20612;-36
2023/09/27 05:27:39;;;;;;;16.45;4.53;;;;;;;;;;4961558;28;20125;-36
2023/09/27 05:30:08;;;;;;;15.63;4.35;;;;;;;;;;4961459;28;20061;-36
2023/09/27 05:32:36;;;;;;;12.13;3.37;;;;;;;;;;4954134;28;20038;-36
2023/09/27 05:35:05;;;;;;;13.40;3.90;;;;;;;;;;4956161;28;20357;-36
2023/09/27 05:37:33;;;;;;;11.70;3.63;;;;;;;;;;4949652;28;20046;-36
2023/09/27 05:40:04;;;;;;;14.02;3.65;;;;;;;;;;4952735;28;20165;-36
2023/09/27 05:42:33;;;;;;;11.82;3.22;;;;;;;;;;4963633;28;20053;-36
2023/09/27 05:45:01;;;;;;;10.03;3.07;;;;;;;;;;4958470;28;20038;-36
2023/09/27 05:47:29;;;;;;;13.40;3.03;;;;;;;;;;4955632;28;20038;-36
2023/09/27 05:49:57;;;;;;;10.30;3.10;;;;;;;;;;4950540;28;20508;-36
2023/09/27 05:52:27;;;;;;;9.60;3.55;;;;;;;;;;4950510;28;20047;-37
2023/09/27 05:54:55;;;;;;;15.63;3.40;;;;;;;;;;4961573;28;20088;-36
2023/09/27 05:57:23;;;;;;;10.17;2.77;;;;;;;;;;4948415;28;20535;-36
2023/09/27 05:59:53;;;;;;;10.60;3.40;;;;;;;;;;4958827;28;20063;-36
2023/09/27 06:02:30;;;;;;;11.20;3.33;;;;;;;;;;4965683;28;20038;-36
2023/09/27 06:05:00;;;;;;;8.93;3.17;;;;;;;;;;4957615;28;20043;-36
2023/09/27 06:07:28;;;;;;;12.70;3.50;;;;;;;;;;4951303;28;20030;-36
2023/09/27 06:09:56;;;;;;;11.93;3.37;;;;;;;;;;4948342;28;20712;-36
2023/09/27 06:12:25;;;;;;;11.70;3.00;;;;;;;;;;4949983;28;20042;-36
2023/09/27 06:14:54;;;;;;;16.38;4.07;;;;;;;;;;4959589;28;20129;-36
2023/09/27 06:17:23;;;;;;;14.63;3.45;;;;;;;;;;4954457;28;20485;-36
2023/09/27 06:19:51;;;;;;;15.75;3.30;;;;;;;;;;4963395;28;20042;-37
2023/09/27 06:22:23;;;;;;;19.07;4.03;;;;;;;;;;4956107;28;20475;-37
2023/09/27 06:24:51;;;;;;;18.42;4.70;;;;;;;;;;4947863;28;20038;-36
2023/09/27 06:27:19;;;;;;;20.52;5.28;;;;;;;;;;4960846;28;20046;-36
2023/09/27 06:29:47;;;;;;;21.83;4.60;;;;;;;;;;4955849;28;20048;-36
2023/09/27 06:32:17;;;;;;;21.42;5.30;;;;;;;;;;4961239;28;20088;-36
2023/09/27 06:34:45;;;;;;;21.53;5.87;;;;;;;;;;4964404;28;20045;-36
2023/09/27 06:37:13;;;;;;;23.52;5.97;;;;;;;;;;4950349;28;20107;-36
2023/09/27 06:39:41;;;;;;;26.67;7.18;;;;;;;;;;4948693;28;20093;-36
2023/09/27 06:42:09;;;;;;;23.98;6.55;;;;;;;;;;4957979;28;20535;-36
2023/09/27 06:44:37;;;;;;;27.38;7.05;;;;;;;;;;4941518;28;20062;-36
2023/09/27 06:47:05;;;;;;;27.83;7.37;;;;;;;;;;4964456;28;20049;-36
2023/09/27 06:49:34;;;;;;;36.20;7.30;;;;;;;;;;4954472;28;20049;-36
2023/09/27 06:52:02;;;;;;;24.00;7.38;;;;;;;;;;4970804;28;20042;-36
2023/09/27 06:54:30;;;;;;;31.80;7.88;;;;;;;;;;4950023;28;20042;-36
2023/09/27 06:56:57;;;;;;;31.83;8.45;;;;;;;;;;4944386;28;20633;-36
2023/09/27 06:59:26;;;;;;;27.77;8.60;;;;;;;;;;4962497;28;20045;-36
2023/09/27 07:01:54;;;;;;;27.30;7.85;;;;;;;;;;4947175;28;20042;-36
2023/09/27 07:04:22;;;;;;;31.15;7.38;;;;;;;;;;4957614;28;20048;-40
2023/09/27 07:06:51;;;;;;;30.52;7.13;;;;;;;;;;4948679;28;20046;-36
2023/09/27 07:09:20;;;;;;;23.70;7.03;;;;;;;;;;4958968;28;20054;-36
2023/09/27 07:11:48;;;;;;;29.67;6.83;;;;;;;;;;4942980;28;20084;-36
2023/09/27 07:14:19;;;;;;;26.50;7.70;;;;;;;;;;4960665;28;20038;-36
2023/09/27 07:16:47;;;;;;;28.75;6.00;;;;;;;;;;4952826;28;20448;-36
2023/09/27 07:19:28;;;;;;;26.42;6.00;;;;;;;;;;4964776;28;20497;-36
2023/09/27 07:21:59;;;;;;;31.60;6.38;;;;;;;;;;4952346;28;20510;-36
2023/09/27 07:24:29;;;;;;;27.33;6.97;;;;;;;;;;4967090;28;20047;-36
2023/09/27 07:26:58;;;;;;;26.00;5.85;;;;;;;;;;4955060;28;20038;-36
2023/09/27 07:29:26;;;;;;;25.63;6.22;;;;;;;;;;4959697;28;20034;-36
2023/09/27 07:31:54;;;;;;;27.38;6.25;;;;;;;;;;4950977;28;20038;-36
2023/09/27 07:34:22;;;;;;;23.27;5.13;;;;;;;;;;4965543;28;20039;-37
2023/09/27 07:36:51;;;;;;;20.80;5.13;;;;;;;;;;4959480;28;20038;-36
2023/09/27 07:39:20;;;;;;;23.85;5.30;;;;;;;;;;4962510;28;20048;-36
2023/09/27 07:41:49;;;;;;;25.45;6.30;;;;;;;;;;4950222;28;20053;-36
2023/09/27 07:44:18;;;;;;;29.25;6.65;;;;;;;;;;4957627;28;20650;-36
2023/09/27 07:46:45;;;;;;;27.80;5.97;;;;;;;;;;4974913;28;22431;-36
2023/09/27 07:49:14;;;;;;;29.83;5.73;;;;;;;;;;4958855;28;20417;-36
2023/09/27 07:51:41;;;;;;;34.88;6.15;;;;;;;;;;4957452;28;20053;-36
2023/09/27 07:54:09;;;;;;;28.67;5.20;;;;;;;;;;4955379;28;20039;-37
2023/09/27 07:56:39;;;;;;;24.92;5.65;;;;;;;;;;4960226;28;20042;-36
2023/09/27 07:59:08;;;;;;;23.55;5.53;;;;;;;;;;4958117;28;20089;-37
2023/09/27 08:01:37;;;;;;;23.23;4.60;;;;;;;;;;4620352;28;10000238;-36
2023/09/27 08:04:08;;;;;;;19.80;5.35;;;;;;;;;;4940701;28;20486;-36
2023/09/27 08:06:39;;;;;;;20.92;5.68;;;;;;;;;;4961104;28;20059;-37
2023/09/27 08:09:09;;;;;;;21.15;6.78;;;;;;;;;;4957086;28;20136;-37
2023/09/27 08:11:51;;;;;;;29.80;7.50;;;;;;;;;;4951254;28;20878;-37
2023/09/27 08:14:21;;;;;;;23.33;7.25;;;;;;;;;;4959719;28;20042;-36
2023/09/27 08:16:55;;;;;;;26.07;7.87;;;;;;;;;;4821351;28;10001116;-36
2023/09/27 08:19:24;;;;;;;26.15;8.40;;;;;;;;;;4958319;28;20269;-37
2023/09/27 08:21:52;;;;;;;27.27;8.88;;;;;;;;;;4948116;28;21150;-37
2023/09/27 08:24:23;;;;;;;28.90;8.57;;;;;;;;;;4956041;28;20042;-36
2023/09/27 08:26:52;;;;;;;32.17;8.05;;;;;;;;;;4947074;28;20153;-36
2023/09/27 08:29:21;;;;;;;21.13;7.60;;;;;;;;;;4930676;28;20050;-36
2023/09/27 08:31:49;;;;;;;23.00;7.40;;;;;;;;;;4934654;28;20101;-36
2023/09/27 08:34:17;;;;;;;20.60;6.05;;;;;;;;;;4932526;28;20912;-37
2023/09/27 08:36:44;;;;;;;18.30;4.53;;;;;;;;;;4929345;28;20049;-36
2023/09/27 08:39:12;;;;;;;27.58;5.28;;;;;;;;;;4936610;28;20042;-36
2023/09/27 08:41:40;;;;;;;16.63;5.85;;;;;;;;;;4932081;28;20041;-36
2023/09/27 08:44:11;;;;;;;18.92;4.85;;;;;;;;;;4927229;28;20170;-37
2023/09/27 08:46:40;;;;;;;17.25;5.22;;;;;;;;;;4938308;28;20058;-37
2023/09/27 08:49:09;;;;;;;16.27;4.20;;;;;;;;;;4925948;28;20117;-36
2023/09/27 08:51:38;;;;;;;21.88;4.47;;;;;;;;;;4948208;28;20573;-37
2023/09/27 08:54:06;;;;;;;15.63;5.00;;;;;;;;;;4929384;28;20054;-36
2023/09/27 08:56:37;;;;;;;16.58;4.35;;;;;;;;;;4936903;28;20047;-36
2023/09/27 08:59:06;;;;;;;18.17;4.15;;;;;;;;;;4943096;28;21283;-36
2023/09/27 09:01:35;;;;;;;23.10;4.17;;;;;;;;;;4929682;28;20046;-36
2023/09/27 09:04:03;;;;;;;15.70;4.57;;;;;;;;;;4939939;28;20069;-37
2023/09/27 09:06:31;;;;;;;17.23;4.20;;;;;;;;;;4924038;28;21672;-39
2023/09/27 09:09:04;;;;;;;12.93;4.00;;;;;;;;;;4938872;28;20042;-37
2023/09/27 09:11:32;;;;;;;12.55;4.07;;;;;;;;;;4935613;28;20249;-36
2023/09/27 09:14:04;;;;;;;14.53;4.27;;;;;;;;;;4922359;28;20054;-36
2023/09/27 09:16:39;;;;;;;15.02;4.43;;;;;;;;;;4937044;28;20712;-36
2023/09/27 09:19:22;;;;;;;13.07;3.83;;;;;;;;;;4943332;28;20086;-36
2023/09/27 09:22:11;;;;;;;12.73;3.78;;;;;;;;;;4942236;28;20128;-36
2023/09/27 09:24:41;;;;;;;15.90;3.38;;;;;;;;;;4929181;28;20181;-36
2023/09/27 09:27:11;;;;;;;11.20;2.43;;;;;;;;;;4941921;28;20049;-37
2023/09/27 09:29:46;;;;;;;12.00;3.25;;;;;;;;;;4927873;28;20428;-36
2023/09/27 09:32:15;;;;;;;17.10;3.40;;;;;;;;;;4930362;28;20100;-36
2023/09/27 09:34:45;;;;;;;10.95;3.00;;;;;;;;;;4941256;28;20052;-36
2023/09/27 09:37:17;;;;;;;17.25;3.58;;;;;;;;;;4948742;28;20112;-37
2023/09/27 09:39:46;;;;;;;14.00;3.20;;;;;;;;;;4952028;28;20038;-37
2023/09/27 09:42:14;;;;;;;12.35;2.97;;;;;;;;;;4959037;28;20069;-39
2023/09/27 09:44:42;;;;;;;11.60;3.25;;;;;;;;;;4962125;28;20038;-37
2023/09/27 09:47:11;;;;;;;18.42;4.70;;;;;;;;;;4954092;28;20212;-37
2023/09/27 09:49:41;;;;;;;14.70;5.38;;;;;;;;;;4960324;28;20503;-36
2023/09/27 09:52:13;;;;;;;12.93;4.30;;;;;;;;;;4960109;28;20046;-36
2023/09/27 09:54:46;;;;;;;14.45;4.32;;;;;;;;;;4969920;28;20034;-37
2023/09/27 09:57:19;;;;;;;14.45;5.97;;;;;;;;;;4933718;28;20034;-36
2023/09/27 10:00:11;;;;;;;23.83;6.93;;;;;;;;;;4956012;28;20050;-36
2023/09/27 10:02:44;;;;;;;16.10;6.30;;;;;;;;;;4957753;28;20049;-36
2023/09/27 10:05:13;;;;;;;16.83;6.63;;;;;;;;;;4951008;28;20046;-37
2023/09/27 10:07:43;;;;;;;16.88;5.55;;;;;;;;;;4961283;28;20527;-36
2023/09/27 10:10:11;;;;;;;13.50;5.53;;;;;;;;;;4936924;28;20908;-36
2023/09/27 10:12:39;;;;;;;15.18;5.53;;;;;;;;;;4964532;28;20053;-36
2023/09/27 10:15:11;;;;;;;13.30;4.75;;;;;;;;;;4950699;28;20482;-36
2023/09/27 10:17:39;;;;;;;12.87;4.47;;;;;;;;;;4965317;28;20048;-37
2023/09/27 10:20:14;;;;;;;12.70;4.22;;;;;;;;;;4258971;28;10000754;-36
2023/09/27 10:22:44;;;;;;;12.68;4.78;;;;;;;;;;4955349;28;20405;-37
2023/09/27 10:25:32;;;;;;;14.77;4.60;;;;;;;;;;4954396;28;20034;-36
2023/09/27 10:28:07;;;;;;;10.70;3.47;;;;;;;;;;4937618;28;20041;-36
2023/09/27 10:30:54;;;;;;;11.82;3.78;;;;;;;;;;4960789;28;20050;-36
2023/09/27 10:33:40;;;;;;;10.48;4.18;;;;;;;;;;4935496;28;21123;-36
2023/09/27 10:36:28;;;;;;;10.60;4.35;;;;;;;;;;4957211;28;20046;-36
2023/09/27 10:39:05;;;;;;;11.57;3.72;;;;;;;;;;4962645;28;20046;-36
2023/09/27 10:41:48;;;;;;;15.27;4.17;;;;;;;;;;4948387;28;20038;-37
2023/09/27 10:44:29;;;;;;;14.10;3.78;;;;;;;;;;4960548;28;20038;-37
2023/09/27 10:46:57;;;;;;;16.63;4.25;;;;;;;;;;4966035;28;20562;-36
2023/09/27 10:49:26;;;;;;;9.95;3.63;;;;;;;;;;4957327;28;20045;-36
2023/09/27 10:51:54;;;;;;;11.18;4.25;;;;;;;;;;4961732;28;20038;-37
2023/09/27 10:54:36;;;;;;;13.10;4.17;;;;;;;;;;4962808;28;20404;-36
2023/09/27 10:57:04;;;;;;;12.98;4.15;;;;;;;;;;4953102;28;20054;-36
2023/09/27 10:59:32;;;;;;;11.90;4.80;;;;;;;;;;4947783;28;20034;-36
2023/09/27 11:02:02;;;;;;;16.13;4.80;;;;;;;;;;4931552;28;20061;-36
2023/09/27 11:04:32;;;;;;;10.30;3.92;;;;;;;;;;4929913;28;20141;-37
2023/09/27 11:07:00;;;;;;;11.47;3.83;;;;;;;;;;4919131;28;20413;-36
2023/09/27 11:09:28;;;;;;;15.55;5.25;;;;;;;;;;4942533;28;20039;-37
2023/09/27 11:12:00;;;;;;;14.38;4.70;;;;;;;;;;4937686;28;20096;-36
2023/09/27 11:14:28;;;;;;;11.85;4.07;;;;;;;;;;4933282;28;20738;-36
2023/09/27 11:16:57;;;;;;;14.18;6.13;;;;;;;;;;4933197;28;20427;-37
2023/09/27 11:19:28;;;;;;;14.00;5.27;;;;;;;;;;4934799;28;21054;-36
2023/09/27 11:21:56;;;;;;;12.95;5.18;;;;;;;;;;4942408;28;20038;-36
2023/09/27 11:24:24;;;;;;;13.02;4.72;;;;;;;;;;4932942;28;21638;-36
2023/09/27 11:26:52;;;;;;;8.75;3.75;;;;;;;;;;4930498;28;20057;-36
2023/09/27 11:29:26;;;;;;;15.73;5.53;;;;;;;;;;4933677;28;20445;-37
2023/09/27 11:31:57;;;;;;;10.73;4.07;;;;;;;;;;4933500;28;20053;-36
2023/09/27 11:34:25;;;;;;;10.02;4.20;;;;;;;;;;4933304;28;20058;-37
2023/09/27 11:36:53;;;;;;;10.20;4.43;;;;;;;;;;4931139;28;20581;-36
2023/09/27 11:39:31;;;;;;;10.82;3.78;;;;;;;;;;4947978;28;20054;-36
2023/09/27 11:42:00;;;;;;;7.40;3.85;;;;;;;;;;4940448;28;20042;-36
2023/09/27 11:44:30;;;;;;;11.80;4.03;;;;;;;;;;4932149;28;20096;-37
2023/09/27 11:47:05;;;;;;;9.95;4.05;;;;;;;;;;4938155;28;20516;-37
2023/09/27 11:49:34;;;;;;;10.95;4.47;;;;;;;;;;4937788;28;20202;-37
2023/09/27 11:52:02;;;;;;;8.57;3.70;;;;;;;;;;4938206;28;20046;-36
2023/09/27 11:54:30;;;;;;;8.68;3.08;;;;;;;;;;4935438;28;20054;-36
2023/09/27 11:56:59;;;;;;;11.03;3.67;;;;;;;;;;4934160;28;20046;-37
2023/09/27 11:59:26;;;;;;;9.23;3.60;;;;;;;;;;4951047;28;20157;-37
2023/09/27 12:01:56;;;;;;;10.00;4.10;;;;;;;;;;4930143;28;20121;-36
2023/09/27 12:04:28;;;;;;;11.38;4.03;;;;;;;;;;4940820;28;20233;-37
2023/09/27 12:06:56;;;;;;;12.23;3.72;;;;;;;;;;4930350;28;20156;-37
2023/09/27 12:09:25;;;;;;;8.07;3.00;;;;;;;;;;4936431;28;20511;-36
2023/09/27 12:11:55;;;;;;;10.25;3.75;;;;;;;;;;4962524;28;20050;-36
2023/09/27 12:14:22;;;;;;;9.48;2.85;;;;;;;;;;4576728;28;10000689;-36
2023/09/27 12:16:50;;;;;;;11.90;4.07;;;;;;;;;;4932516;28;20042;-37
2023/09/27 12:19:19;;;;;;;7.83;3.67;;;;;;;;;;4942637;28;21430;-36
2023/09/27 12:21:47;;;;;;;12.15;3.88;;;;;;;;;;4911063;28;20034;-36
2023/09/27 12:24:15;;;;;;;11.05;3.80;;;;;;;;;;4930426;28;20057;-37
2023/09/27 12:26:44;;;;;;;10.05;3.53;;;;;;;;;;4928421;28;20049;-36
2023/09/27 12:29:12;;;;;;;6.22;3.20;;;;;;;;;;4935245;28;20153;-36
2023/09/27 12:31:40;;;;;;;9.50;3.03;;;;;;;;;;4932088;28;20042;-37
2023/09/27 12:34:09;;;;;;;9.98;3.47;;;;;;;;;;4938894;28;21187;-37
2023/09/27 12:36:39;;;;;;;11.43;3.70;;;;;;;;;;4932059;28;20493;-37
2023/09/27 12:39:07;;;;;;;7.25;2.95;;;;;;;;;;4943061;28;20050;-37
2023/09/27 12:41:35;;;;;;;7.90;3.80;;;;;;;;;;4932152;28;21273;-36
2023/09/27 12:44:03;;;;;;;9.63;3.60;;;;;;;;;;4941367;28;20133;-36
2023/09/27 12:46:31;;;;;;;9.85;3.00;;;;;;;;;;4929935;28;20074;-37
2023/09/27 12:48:59;;;;;;;9.27;3.00;;;;;;;;;;4946259;28;20513;-36
2023/09/27 12:51:26;;;;;;;9.93;3.53;;;;;;;;;;4592193;28;10000429;-36
2023/09/27 12:54:13;;;;;;;12.10;3.17;;;;;;;;;;4924602;28;20677;-36
2023/09/27 12:56:41;;;;;;;9.00;3.00;;;;;;;;;;4932674;28;20045;-37
2023/09/27 12:59:08;;;;;;;9.20;3.25;;;;;;;;;;4938525;28;20277;-37
2023/09/27 13:01:36;;;;;;;11.23;3.30;;;;;;;;;;4917480;28;20039;-37
2023/09/27 13:04:07;;;;;;;7.68;2.45;;;;;;;;;;4920250;28;20049;-37
2023/09/27 13:06:35;;;;;;;7.37;2.33;;;;;;;;;;4941660;28;20038;-36
2023/09/27 13:09:03;;;;;;;8.90;2.75;;;;;;;;;;4922762;28;20049;-36
2023/09/27 13:11:33;;;;;;;10.38;2.58;;;;;;;;;;4948437;28;20552;-38
2023/09/27 13:14:01;;;;;;;7.78;2.42;;;;;;;;;;4924303;28;20054;-36
2023/09/27 13:16:29;;;;;;;8.82;2.72;;;;;;;;;;4941442;28;20066;-37
2023/09/27 13:18:57;;;;;;;5.97;2.17;;;;;;;;;;4935157;28;20053;-37
2023/09/27 13:21:27;;;;;;;5.75;1.77;;;;;;;;;;4940784;28;20038;-37
2023/09/27 13:23:55;;;;;;;6.85;2.08;;;;;;;;;;4944161;28;20046;-37
2023/09/27 13:26:23;;;;;;;8.77;1.92;;;;;;;;;;4919879;28;20659;-37
2023/09/27 13:28:52;;;;;;;9.02;1.88;;;;;;;;;;4944503;28;20093;-38
2023/09/27 13:31:20;;;;;;;6.97;1.80;;;;;;;;;;4929554;28;20564;-37
2023/09/27 13:33:49;;;;;;;5.50;1.65;;;;;;;;;;4943601;28;20070;-37
2023/09/27 13:36:36;;;;;;;7.38;2.00;;;;;;;;;;4926261;28;20050;-37
2023/09/27 13:39:05;;;;;;;6.38;1.85;;;;;;;;;;4943940;28;20046;-37
2023/09/27 13:41:40;;;;;;;7.03;1.95;;;;;;;;;;4931044;28;20043;-36
2023/09/27 13:44:10;;;;;;;8.13;1.80;;;;;;;;;;4933627;28;20042;-36
2023/09/27 13:46:38;;;;;;;6.57;1.88;;;;;;;;;;4930941;28;20042;-37
2023/09/27 13:49:06;;;;;;;8.48;2.10;;;;;;;;;;4946282;28;20038;-37
2023/09/27 13:51:36;;;;;;;7.25;2.05;;;;;;;;;;4933704;28;20436;-37
2023/09/27 13:54:04;;;;;;;6.72;2.22;;;;;;;;;;4924722;28;21552;-36
2023/09/27 13:56:32;;;;;;;5.53;2.07;;;;;;;;;;4925819;28;20634;-37
2023/09/27 13:59:00;;;;;;;7.75;1.60;;;;;;;;;;4938183;28;20046;-36
2023/09/27 14:01:30;;;;;;;5.78;2.15;;;;;;;;;;4941740;28;20053;-36
2023/09/27 14:03:58;;;;;;;6.85;1.80;;;;;;;;;;4930681;28;20046;-36
2023/09/27 14:06:26;;;;;;;8.00;2.15;;;;;;;;;;4898750;28;20034;-36
2023/09/27 14:08:54;;;;;;;7.43;1.73;;;;;;;;;;4937275;28;20142;-37
2023/09/27 14:11:23;;;;;;;6.57;2.05;;;;;;;;;;4936690;28;20058;-37
2023/09/27 14:13:52;;;;;;;8.35;1.85;;;;;;;;;;4931563;28;20043;-37
2023/09/27 14:16:20;;;;;;;5.50;1.50;;;;;;;;;;4937456;28;20072;-37
2023/09/27 14:18:49;;;;;;;6.20;1.60;;;;;;;;;;4929935;28;20047;-37
2023/09/27 14:21:18;;;;;;;7.27;1.93;;;;;;;;;;4947409;28;20061;-36
2023/09/27 14:23:46;;;;;;;6.78;1.55;;;;;;;;;;4949067;28;20042;-37
2023/09/27 14:26:14;;;;;;;6.75;1.70;;;;;;;;;;4919555;28;20062;-37
2023/09/27 14:28:43;;;;;;;7.78;2.88;;;;;;;;;;4943349;28;20042;-37
2023/09/27 14:31:11;;;;;;;8.05;1.85;;;;;;;;;;4927419;28;20069;-36
2023/09/27 14:33:39;;;;;;;8.27;2.00;;;;;;;;;;4946436;28;20180;-37
2023/09/27 14:36:12;;;;;;;5.93;1.63;;;;;;;;;;4903700;28;20097;-36
2023/09/27 14:38:40;;;;;;;15.45;2.13;;;;;;;;;;4936991;28;20045;-37
2023/09/27 14:41:08;;;;;;;8.25;1.92;;;;;;;;;;4934916;28;20242;-37
2023/09/27 14:43:37;;;;;;;9.55;1.95;;;;;;;;;;4932025;28;20050;-37